Check out our new BloomSky Weather System.

Active alerts


No alerts


Thunder radar  blitzortung!


Rain radar more information rain snow radar


Visit our other weather sites:

Template documentation
and downloads

And another site



Weather Underground History page Text

Daily Summary for February 25, 2017 Units:  Metric    English   Both
« Previous Day
Next Day »
Daily Weekly Monthly Yearly Custom
  High: Low: Average:
Temperature: -17.8 °C 8.6 °C 13.8 °C
Dew Point: -17.8 °C -0.3 °C 1.8 °C
Humidity: Humidity % 27 % 46 %
Wind Speed: 0 km/h 0 km/h 3.7 km/h
Wind Gust: 0 km/h - -
Wind:- - SW
Pressure: 0 hPa 1014.4 hPa -
Precipitation: 0 mm    
Historical Graphs
 
 
Tabular Data for February 25, 2017
Time Temperature Dew Point Pressure Wind Wind Speed Wind Gust Humidity Rainfall Rate (Hourly)
-17.8 °C -17.8 °C 0 hPa Calm     Humidity % 0 mm
00:02 14.3 °C 4.8 °C 1014.4 hPa Calm   19.3 km/h 53 % 0 mm
00:08 14.2 °C 4.8 °C 1014.4 hPa North 4.8 km/h 16.1 km/h 53 % 0 mm
00:13 14.1 °C 4.7 °C 1014.8 hPa North 4.8 km/h 19.3 km/h 53 % 0 mm
00:18 14 °C 4.6 °C 1014.8 hPa NW 6.4 km/h 19.3 km/h 53 % 0 mm
00:23 13.9 °C 4.7 °C 1014.8 hPa North 6.4 km/h 19.3 km/h 54 % 0 mm
00:28 13.9 °C 4.7 °C 1014.8 hPa NW 6.4 km/h 14.5 km/h 54 % 0 mm
00:33 13.7 °C 4.6 °C 1014.8 hPa North 3.2 km/h 14.5 km/h 54 % 0 mm
00:38 13.6 °C 4.7 °C 1014.8 hPa NNW 3.2 km/h 11.3 km/h 55 % 0 mm
00:43 13.5 °C 4.6 °C 1014.8 hPa NNW 4.8 km/h 11.3 km/h 55 % 0 mm
00:48 13.3 °C 4.7 °C 1014.8 hPa NW 3.2 km/h 11.3 km/h 56 % 0 mm
00:53 13.2 °C 4.6 °C 1014.8 hPa NW 1.6 km/h 11.3 km/h 56 % 0 mm
00:58 13.1 °C 4.5 °C 1014.8 hPa NNW 3.2 km/h 11.3 km/h 56 % 0 mm
00:59 13.1 °C 4.8 °C 1014.8 hPa WNW 3.2 km/h 11.3 km/h 57 % 0 mm
01:04 12.9 °C 4.3 °C 1014.8 hPa NNW 4.8 km/h 8 km/h 56 % 0 mm
01:09 12.9 °C 4.6 °C 1014.8 hPa NNW 3.2 km/h 8 km/h 57 % 0 mm
01:14 12.8 °C 4.5 °C 1015.1 hPa NW 1.6 km/h 11.3 km/h 57 % 0 mm
01:19 12.6 °C 4.3 °C 1015.1 hPa Calm   11.3 km/h 57 % 0 mm
01:24 12.5 °C 4.5 °C 1015.1 hPa Calm   11.3 km/h 58 % 0 mm
01:29 12.4 °C 4.4 °C 1015.1 hPa Calm   8 km/h 58 % 0 mm
01:34 12.2 °C 4.2 °C 1015.5 hPa Calm   6.4 km/h 58 % 0 mm
01:39 12.1 °C 4.3 °C 1015.5 hPa Calm   6.4 km/h 59 % 0 mm
01:45 11.8 °C 4 °C 1015.5 hPa Calm   3.2 km/h 59 % 0 mm
01:50 11.8 °C 4 °C 1015.5 hPa NW 1.6 km/h 1.6 km/h 59 % 0 mm
01:55 11.9 °C 4.1 °C 1015.8 hPa Calm   4.8 km/h 59 % 0 mm
02:00 11.9 °C 4.1 °C 1015.8 hPa NNW 1.6 km/h 4.8 km/h 59 % 0 mm
02:05 11.9 °C 3.9 °C 1015.8 hPa Calm   11.3 km/h 58 % 0 mm
02:10 11.8 °C 4 °C 1015.8 hPa Calm   11.3 km/h 59 % 0 mm
02:15 11.7 °C 4 °C 1015.8 hPa NNW 1.6 km/h 4.8 km/h 59 % 0 mm
02:20 11.6 °C 3.9 °C 1015.8 hPa Calm   3.2 km/h 59 % 0 mm
02:25 11.4 °C 3.9 °C 1015.8 hPa Calm   3.2 km/h 60 % 0 mm
02:30 11.2 °C 3.7 °C 1015.8 hPa Calm   3.2 km/h 60 % 0 mm
02:35 11.1 °C 3.9 °C 1015.8 hPa NNE 1.6 km/h 3.2 km/h 61 % 0 mm
02:40 11.2 °C 4 °C 1015.8 hPa Calm   4.8 km/h 61 % 0 mm
02:45 11.2 °C 3.7 °C 1016.1 hPa NW 4.8 km/h 6.4 km/h 60 % 0 mm
02:50 11.2 °C 3.7 °C 1016.1 hPa Calm   6.4 km/h 60 % 0 mm
02:55 11.1 °C 3.6 °C 1016.1 hPa NNW 1.6 km/h 6.4 km/h 60 % 0 mm
03:00 11.1 °C 3.6 °C 1016.1 hPa North 1.6 km/h 6.4 km/h 60 % 0 mm
03:05 11 °C 3.5 °C 1016.1 hPa Calm   6.4 km/h 60 % 0 mm
03:10 10.8 °C 3.6 °C 1016.1 hPa Calm   6.4 km/h 61 % 0 mm
03:15 10.7 °C 3.5 °C 1016.1 hPa North 1.6 km/h 3.2 km/h 61 % 0 mm
03:20 10.6 °C 3.6 °C 1016.1 hPa Calm   3.2 km/h 62 % 0 mm
03:25 10.4 °C 3.4 °C 1016.1 hPa North 1.6 km/h 3.2 km/h 62 % 0 mm
03:30 10.4 °C 3.4 °C 1016.1 hPa NW 1.6 km/h 4.8 km/h 62 % 0 mm
03:35 10.4 °C 3.4 °C 1016.1 hPa Calm   6.4 km/h 62 % 0 mm
03:40 10.4 °C 3.4 °C 1016.1 hPa NNW 1.6 km/h 6.4 km/h 62 % 0 mm
03:45 10.5 °C 3.5 °C 1016.5 hPa Calm   8 km/h 62 % 0 mm
03:51 10.4 °C 3.4 °C 1016.5 hPa Calm   8 km/h 62 % 0 mm
03:56 10.3 °C 3.3 °C 1016.5 hPa Calm   8 km/h 62 % 0 mm
04:01 10.2 °C 3.2 °C 1016.8 hPa Calm   3.2 km/h 62 % 0 mm
04:06 10.2 °C 3.5 °C 1016.5 hPa Calm   3.2 km/h 63 % 0 mm
04:11 10 °C 3.3 °C 1016.5 hPa NNW 3.2 km/h 3.2 km/h 63 % 0 mm
04:16 9.9 °C 3.4 °C 1016.8 hPa WNW 1.6 km/h 3.2 km/h 64 % 0 mm
04:21 9.8 °C 3.3 °C 1016.8 hPa NNE 3.2 km/h 4.8 km/h 64 % 0 mm
04:26 9.8 °C 3.3 °C 1016.8 hPa NNW 4.8 km/h 4.8 km/h 64 % 0 mm
04:31 9.8 °C 3.3 °C 1017.2 hPa NW 3.2 km/h 4.8 km/h 64 % 0 mm
04:36 9.9 °C 3.2 °C 1017.2 hPa North 4.8 km/h 6.4 km/h 63 % 0 mm
04:41 10 °C 3.1 °C 1017.2 hPa NW 3.2 km/h 9.7 km/h 62 % 0 mm
04:46 10 °C 3.1 °C 1017.5 hPa NNW 3.2 km/h 9.7 km/h 62 % 0 mm
04:51 9.9 °C 3 °C 1017.8 hPa NNW 1.6 km/h 9.7 km/h 62 % 0 mm
04:56 9.9 °C 3.2 °C 1017.5 hPa NNW 1.6 km/h 8 km/h 63 % 0 mm
05:01 9.8 °C 3.3 °C 1017.8 hPa NW 3.2 km/h 6.4 km/h 64 % 0 mm
05:06 9.7 °C 3.2 °C 1017.8 hPa WNW 4.8 km/h 8 km/h 64 % 0 mm
05:11 9.7 °C 3.2 °C 1017.8 hPa NW 8 km/h 9.7 km/h 64 % 0 mm
05:16 9.7 °C 3 °C 1017.8 hPa North 6.4 km/h 16.1 km/h 63 % 0 mm
05:21 9.7 °C 3 °C 1017.8 hPa NNW 3.2 km/h 16.1 km/h 63 % 0 mm
05:26 9.6 °C 2.9 °C 1017.8 hPa NNW 1.6 km/h 16.1 km/h 63 % 0 mm
05:31 9.5 °C 2.8 °C 1018.2 hPa NNW 3.2 km/h 11.3 km/h 63 % 0 mm
05:36 9.5 °C 2.8 °C 1018.2 hPa NNW 9.7 km/h 12.9 km/h 63 % 0 mm
05:41 9.4 °C 2.7 °C 1018.2 hPa NNW 1.6 km/h 12.9 km/h 63 % 0 mm
05:46 9.4 °C 2.7 °C 1018.5 hPa North 3.2 km/h 12.9 km/h 63 % 0 mm
05:51 9.3 °C 2.6 °C 1018.2 hPa NNW 4.8 km/h 12.9 km/h 63 % 0 mm
05:57 9.2 °C 2.7 °C 1018.5 hPa NW 3.2 km/h 11.3 km/h 64 % 0 mm
06:02 9.2 °C 2.7 °C 1018.5 hPa NW 8 km/h 9.7 km/h 64 % 0 mm
06:07 9.1 °C 2.9 °C 1018.5 hPa WNW 1.6 km/h 9.7 km/h 65 % 0 mm
06:12 8.9 °C 2.7 °C 1018.5 hPa West 6.4 km/h 9.7 km/h 65 % 0 mm
06:17 8.9 °C 2.7 °C 1018.5 hPa NNE 8 km/h 9.7 km/h 65 % 0 mm
06:22 8.8 °C 2.6 °C 1018.5 hPa NNW 8 km/h 11.3 km/h 65 % 0 mm
06:27 8.8 °C 2.4 °C 1018.8 hPa North 6.4 km/h 11.3 km/h 64 % 0 mm
06:32 8.8 °C 1.9 °C 1018.8 hPa NNE 3.2 km/h 11.3 km/h 62 % 0 mm
06:37 8.8 °C 1.9 °C 1018.8 hPa Calm   11.3 km/h 62 % 0 mm
06:42 8.7 °C 2 °C 1018.8 hPa NNW 4.8 km/h 11.3 km/h 63 % 0 mm
06:47 8.7 °C 2 °C 1019.2 hPa NNW 4.8 km/h 9.7 km/h 63 % 0 mm
06:52 8.6 °C 2.2 °C 1019.2 hPa NW 3.2 km/h 9.7 km/h 64 % 0 mm
06:57 8.6 °C 2 °C 1019.2 hPa WNW 3.2 km/h 11.3 km/h 63 % 0 mm
07:02 8.6 °C 1.7 °C 1019.5 hPa WNW 9.7 km/h 12.9 km/h 62 % 0 mm
07:07 8.6 °C 1.5 °C 1019.5 hPa NW 4.8 km/h 19.3 km/h 61 % 0 mm
07:12 8.6 °C 1.7 °C 1019.5 hPa West 6.4 km/h 19.3 km/h 62 % 0 mm
07:17 8.6 °C 1.7 °C 1019.9 hPa North 3.2 km/h 19.3 km/h 62 % 0 mm
07:22 8.6 °C 1.5 °C 1019.9 hPa NW 14.5 km/h 14.5 km/h 61 % 0 mm
07:27 8.6 °C 1.3 °C 1019.9 hPa NNE 8 km/h 17.7 km/h 60 % 0 mm
07:32 8.7 °C 1.4 °C 1020.2 hPa NW 4.8 km/h 19.3 km/h 60 % 0 mm
07:37 8.8 °C 1 °C 1019.9 hPa North 11.3 km/h 19.3 km/h 58 % 0 mm
07:42 8.9 °C 1.1 °C 1020.2 hPa NW 8 km/h 19.3 km/h 58 % 0 mm
07:47 9 °C 1.2 °C 1020.2 hPa NNW 11.3 km/h 17.7 km/h 58 % 0 mm
07:52 9.2 °C 1.4 °C 1020.5 hPa NNE 14.5 km/h 17.7 km/h 58 % 0 mm
07:57 9.3 °C 1.2 °C 1020.5 hPa NW 9.7 km/h 17.7 km/h 57 % 0 mm
08:02 9.4 °C 1.3 °C 1020.5 hPa NE 8 km/h 20.9 km/h 57 % 0 mm
08:07 9.5 °C 1.2 °C 1020.5 hPa NNW 11.3 km/h 20.9 km/h 56 % 0 mm
08:12 9.6 °C 1 °C 1020.5 hPa NNE 6.4 km/h 20.9 km/h 55 % 0 mm
08:17 9.8 °C 0.9 °C 1020.5 hPa WNW 4.8 km/h 19.3 km/h 54 % 0 mm
08:23 9.9 °C 1 °C 1020.5 hPa WNW 9.7 km/h 19.3 km/h 54 % 0 mm
08:28 10.1 °C 0.9 °C 1020.9 hPa North 8 km/h 19.3 km/h 53 % 0 mm
08:33 10.2 °C 0.8 °C 1020.9 hPa North 11.3 km/h 19.3 km/h 52 % 0 mm
08:38 10.3 °C 0.6 °C 1020.9 hPa NE 11.3 km/h 17.7 km/h 51 % 0 mm
08:43 10.3 °C 0.9 °C 1020.9 hPa NNW 3.2 km/h 20.9 km/h 52 % 0 mm
08:48 10.6 °C 0.9 °C 1020.9 hPa WNW 3.2 km/h 20.9 km/h 51 % 0 mm
08:53 10.7 °C 0.4 °C 1020.9 hPa NNW 3.2 km/h 20.9 km/h 49 % 0 mm
08:58 10.9 °C 0.6 °C 1021.2 hPa North 9.7 km/h 19.3 km/h 49 % 0 mm
09:03 10.9 °C 0.3 °C 1021.2 hPa WNW 17.7 km/h 17.7 km/h 48 % 0 mm
09:08 10.9 °C 0.3 °C 1021.2 hPa West 9.7 km/h 22.5 km/h 48 % 0 mm
09:13 11.1 °C 0.5 °C 1021.2 hPa NW 8 km/h 22.5 km/h 48 % 0 mm
09:18 11.2 °C 0.3 °C 1021.2 hPa NW 12.9 km/h 22.5 km/h 47 % 0 mm
09:23 11.4 °C 0.2 °C 1021.6 hPa NNW 14.5 km/h 20.9 km/h 46 % 0 mm
09:28 11.6 °C 0.4 °C 1021.6 hPa NW 8 km/h 20.9 km/h 46 % 0 mm
09:33 11.8 °C 0.2 °C 1021.6 hPa NNW 6.4 km/h 17.7 km/h 45 % 0 mm
09:38 12.1 °C 1.1 °C 1021.6 hPa NNE 4.8 km/h 20.9 km/h 47 % 0 mm
09:43 12.3 °C 0.7 °C 1021.6 hPa WNW 6.4 km/h 20.9 km/h 45 % 0 mm
09:48 12.6 °C 0.7 °C 1021.2 hPa NW 8 km/h 20.9 km/h 44 % 0 mm
09:53 12.8 °C 1.2 °C 1021.2 hPa North 6.4 km/h 16.1 km/h 45 % 0 mm
09:58 12.7 °C 0.1 °C 1021.2 hPa WNW 8 km/h 19.3 km/h 42 % 0 mm
10:03 12.7 °C 0.4 °C 1021.6 hPa NNW 4.8 km/h 19.3 km/h 43 % 0 mm
10:08 12.9 °C 0.6 °C 1021.6 hPa North 4.8 km/h 20.9 km/h 43 % 0 mm
10:14 13.3 °C 0.7 °C 1021.6 hPa NW 6.4 km/h 20.9 km/h 42 % 0 mm
10:19 13.5 °C 0.5 °C 1021.6 hPa NW 11.3 km/h 20.9 km/h 41 % 0 mm
10:24 13.7 °C 0.7 °C 1021.6 hPa NW 4.8 km/h 14.5 km/h 41 % 0 mm
10:29 13.7 °C 0.3 °C 1021.6 hPa NNW 3.2 km/h 16.1 km/h 40 % 0 mm
10:34 13.9 °C 0.9 °C 1021.6 hPa NNW 11.3 km/h 16.1 km/h 41 % 0 mm
10:39 14.3 °C 0.9 °C 1021.6 hPa North 14.5 km/h 17.7 km/h 40 % 0 mm
10:44 14.4 °C 1 °C 1021.6 hPa North 6.4 km/h 17.7 km/h 40 % 0 mm
10:49 14.5 °C 0.7 °C 1021.6 hPa NNW 12.9 km/h 17.7 km/h 39 % 0 mm
10:54 14.9 °C 1.8 °C 1021.6 hPa WNW 4.8 km/h 16.1 km/h 41 % 0 mm
10:59 15.1 °C 0.9 °C 1021.6 hPa North 9.7 km/h 16.1 km/h 38 % 0 mm
11:04 15.1 °C 0.5 °C 1021.6 hPa NW 1.6 km/h 16.1 km/h 37 % 0 mm
11:09 15.2 °C 1.3 °C 1021.2 hPa NW 3.2 km/h 16.1 km/h 39 % 0 mm
11:14 15.3 °C 0.7 °C 1021.2 hPa North 11.3 km/h 16.1 km/h 37 % 0 mm
11:19 15.4 °C 0.8 °C 1021.2 hPa NW 1.6 km/h 16.1 km/h 37 % 0 mm
11:24 15.7 °C 1 °C 1021.2 hPa NW 8 km/h 16.1 km/h 37 % 0 mm
11:29 15.8 °C 1.1 °C 1021.2 hPa West 3.2 km/h 16.1 km/h 37 % 0 mm
11:30 15.9 °C 1.6 °C 1021.2 hPa NNW 8 km/h 16.1 km/h 38 % 0 mm
11:35 16.1 °C 0.6 °C 1021.2 hPa NW 3.2 km/h 17.7 km/h 35 % 0 mm
11:40 15.9 °C 1.2 °C 1021.2 hPa NW 12.9 km/h 17.7 km/h 37 % 0 mm
11:45 16.2 °C 1.1 °C 1020.9 hPa North 8 km/h 17.7 km/h 36 % 0 mm
11:50 16.4 °C -0.3 °C 1020.9 hPa NW 4.8 km/h 14.5 km/h 32 % 0 mm
11:55 16.4 °C -0.3 °C 1020.9 hPa NNW 3.2 km/h 14.5 km/h 32 % 0 mm
12:00 16.8 °C 0.8 °C 1020.9 hPa NNW 8 km/h 14.5 km/h 34 % 0 mm
12:05 16.8 °C 0.8 °C 1020.9 hPa NW 1.6 km/h 14.5 km/h 34 % 0 mm
12:10 16.9 °C 0.9 °C 1020.5 hPa NW 1.6 km/h 14.5 km/h 34 % 0 mm
12:15 17.2 °C 0.8 °C 1020.5 hPa NNW 9.7 km/h 17.7 km/h 33 % 0 mm
12:20 17.2 °C 1.2 °C 1020.5 hPa NE 3.2 km/h 17.7 km/h 34 % 0 mm
12:25 17.4 °C 0.5 °C 1020.5 hPa NW 4.8 km/h 17.7 km/h 32 % 0 mm
12:30 17.5 °C 0.2 °C 1020.5 hPa NNW 16.1 km/h 17.7 km/h 31 % 0 mm
12:35 17.7 °C 0.8 °C 1020.5 hPa NNW 8 km/h 20.9 km/h 32 % 0 mm
12:40 17.8 °C 0.4 °C 1020.2 hPa WNW 1.6 km/h 20.9 km/h 31 % 0 mm
12:45 18 °C 0.6 °C 1020.2 hPa Calm   20.9 km/h 31 % 0 mm
12:50 18.1 °C 0.7 °C 1020.2 hPa NNE 9.7 km/h 17.7 km/h 31 % 0 mm
12:51 18.1 °C 0.7 °C 1020.2 hPa NNW 1.6 km/h 17.7 km/h 31 % 0 mm
12:56 18.2 °C 0.8 °C 1020.2 hPa NNW 6.4 km/h 17.7 km/h 31 % 0 mm
13:01 18.3 °C 0.4 °C 1019.9 hPa NNE 9.7 km/h 16.1 km/h 30 % 0 mm
13:06 18.2 °C 0.3 °C 1019.9 hPa North 11.3 km/h 17.7 km/h 30 % 0 mm
13:11 18.3 °C 0 °C 1019.9 hPa North 6.4 km/h 17.7 km/h 29 % 0 mm
13:16 18.4 °C 0.5 °C 1019.9 hPa NNW 8 km/h 17.7 km/h 30 % 0 mm
13:21 18.4 °C 0.5 °C 1019.9 hPa NW 4.8 km/h 16.1 km/h 30 % 0 mm
13:26 18.4 °C 1 °C 1019.5 hPa NNW 4.8 km/h 16.1 km/h 31 % 0 mm
13:31 18.6 °C 0.7 °C 1019.5 hPa NW 4.8 km/h 16.1 km/h 30 % 0 mm
13:36 18.8 °C 1.3 °C 1019.5 hPa WNW 4.8 km/h 14.5 km/h 31 % 0 mm
13:41 18.7 °C 0.8 °C 1019.2 hPa West 6.4 km/h 14.5 km/h 30 % 0 mm
13:46 18.9 °C 0.9 °C 1019.2 hPa NW 11.3 km/h 12.9 km/h 30 % 0 mm
13:52 19.1 °C 1.1 °C 1019.2 hPa NW 11.3 km/h 12.9 km/h 30 % 0 mm
13:57 19 °C 0.6 °C 1018.8 hPa NW 6.4 km/h 16.1 km/h 29 % 0 mm
14:02 19.2 °C 1.7 °C 1018.8 hPa North 1.6 km/h 16.1 km/h 31 % 0 mm
14:07 19.4 °C 0.4 °C 1018.8 hPa NNW 9.7 km/h 16.1 km/h 28 % 0 mm
14:12 19.2 °C 0.2 °C 1018.8 hPa NW 6.4 km/h 14.5 km/h 28 % 0 mm
14:17 19.1 °C 0.2 °C 1018.5 hPa NNW 12.9 km/h 14.5 km/h 28 % 0 mm
14:22 19.2 °C 0.2 °C 1018.5 hPa NNW 3.2 km/h 17.7 km/h 28 % 0 mm
14:27 19.2 °C 0.2 °C 1018.5 hPa NNW 9.7 km/h 17.7 km/h 28 % 0 mm
14:32 19.3 °C 0.8 °C 1018.5 hPa North 11.3 km/h 17.7 km/h 29 % 0 mm
14:37 19.4 °C 0.4 °C 1018.5 hPa WNW 4.8 km/h 17.7 km/h 28 % 0 mm
14:42 19.4 °C 0.4 °C 1018.5 hPa NNW 3.2 km/h 17.7 km/h 28 % 0 mm
14:47 19.5 °C 1 °C 1018.5 hPa NW 3.2 km/h 17.7 km/h 29 % 0 mm
14:52 19.6 °C 1.1 °C 1018.2 hPa NW 6.4 km/h 16.1 km/h 29 % 0 mm
14:57 19.8 °C 1.2 °C 1018.2 hPa NE 6.4 km/h 16.1 km/h 29 % 0 mm
15:02 20.1 °C 1.5 °C 1018.2 hPa ENE 4.8 km/h 14.5 km/h 29 % 0 mm
15:07 19.9 °C 0.8 °C 1018.2 hPa NNW 8 km/h 14.5 km/h 28 % 0 mm
15:12 19.8 °C 0.8 °C 1018.2 hPa NNW 6.4 km/h 12.9 km/h 28 % 0 mm
15:17 19.7 °C 0.2 °C 1018.2 hPa NW 9.7 km/h 12.9 km/h 27 % 0 mm
15:22 19.9 °C 1.8 °C 1017.8 hPa NE 4.8 km/h 16.1 km/h 30 % 0 mm
15:27 20.2 °C 1.1 °C 1017.8 hPa ENE 4.8 km/h 16.1 km/h 28 % 0 mm
15:32 20.2 °C 1.1 °C 1017.8 hPa SSW 3.2 km/h 16.1 km/h 28 % 0 mm
15:37 19.9 °C 0.8 °C 1017.8 hPa SSE 6.4 km/h 14.5 km/h 28 % 0 mm
15:42 20 °C 0.9 °C 1017.8 hPa ENE 1.6 km/h 14.5 km/h 28 % 0 mm
15:47 20.3 °C 1.7 °C 1017.5 hPa Calm   12.9 km/h 29 % 0 mm
15:52 20.6 °C 0.9 °C 1017.5 hPa NNW 3.2 km/h 12.9 km/h 27 % 0 mm
15:57 20.4 °C 0.8 °C 1017.5 hPa ENE 1.6 km/h 9.7 km/h 27 % 0 mm
16:02 20.2 °C 0.6 °C 1017.5 hPa North 6.4 km/h 11.3 km/h 27 % 0 mm
16:07 20.3 °C 1.7 °C 1017.5 hPa Calm   11.3 km/h 29 % 0 mm
16:12 20.3 °C 0.7 °C 1017.5 hPa North 1.6 km/h 14.5 km/h 27 % 0 mm
16:17 20.3 °C 0.7 °C 1017.5 hPa East 6.4 km/h 14.5 km/h 27 % 0 mm
16:22 20.2 °C 1.6 °C 1017.2 hPa ENE 1.6 km/h 14.5 km/h 29 % 0 mm
16:27 20.2 °C 1.6 °C 1017.2 hPa Calm   12.9 km/h 29 % 0 mm
16:32 20.2 °C 1.1 °C 1017.2 hPa ENE 8 km/h 12.9 km/h 28 % 0 mm
16:37 20.2 °C 1.6 °C 1017.2 hPa ENE 4.8 km/h 12.9 km/h 29 % 0 mm
16:42 20.2 °C 1.1 °C 1017.5 hPa North 3.2 km/h 11.3 km/h 28 % 0 mm
16:47 20.1 °C 1.5 °C 1017.5 hPa WNW 1.6 km/h 12.9 km/h 29 % 0 mm
16:52 19.9 °C 1.3 °C 1017.5 hPa East 3.2 km/h 12.9 km/h 29 % 0 mm
16:57 19.8 °C 1.7 °C 1017.5 hPa Calm   12.9 km/h 30 % 0 mm
17:02 19.7 °C 1.2 °C 1017.5 hPa Calm   11.3 km/h 29 % 0 mm
17:07 19.7 °C 0.7 °C 1017.2 hPa NNE 3.2 km/h 11.3 km/h 28 % 0 mm
17:12 19.5 °C 1 °C 1017.5 hPa ENE 3.2 km/h 11.3 km/h 29 % 0 mm
17:17 19.4 °C 0.9 °C 1017.5 hPa NNW 4.8 km/h 9.7 km/h 29 % 0 mm
17:22 19.4 °C 0.9 °C 1017.5 hPa ENE 3.2 km/h 9.7 km/h 29 % 0 mm
17:27 19.2 °C 0.7 °C 1017.5 hPa East 3.2 km/h 8 km/h 29 % 0 mm
17:32 19.1 °C 1.1 °C 1017.2 hPa Calm   8 km/h 30 % 0 mm
17:37 19 °C 0.6 °C 1017.5 hPa Calm   8 km/h 29 % 0 mm
17:42 18.8 °C 0.9 °C 1017.5 hPa Calm   6.4 km/h 30 % 0 mm
17:47 18.7 °C 0.3 °C 1017.5 hPa Calm   6.4 km/h 29 % 0 mm
17:52 18.6 °C 0.2 °C 1017.5 hPa Calm   6.4 km/h 29 % 0 mm
17:57 18.4 °C 0 °C 1017.5 hPa Calm   6.4 km/h 29 % 0 mm
18:02 18.1 °C 0.2 °C 1017.5 hPa ENE 1.6 km/h 6.4 km/h 30 % 0 mm
18:07 17.8 °C 0 °C 1017.5 hPa Calm   3.2 km/h 30 % 0 mm
18:12 17.6 °C 0.3 °C 1017.5 hPa Calm   3.2 km/h 31 % 0 mm
18:17 17.3 °C 0.4 °C 1017.5 hPa Calm   3.2 km/h 32 % 0 mm
18:22 17.1 °C 0.7 °C 1017.5 hPa North 1.6 km/h 3.2 km/h 33 % 0 mm
18:27 16.8 °C 0.8 °C 1017.5 hPa Calm   3.2 km/h 34 % 0 mm
18:32 16.6 °C 1.1 °C 1017.5 hPa Calm   1.6 km/h 35 % 0 mm
18:37 16.4 °C 0.9 °C 1017.5 hPa Calm   1.6 km/h 35 % 0 mm
18:42 16.2 °C 1.5 °C 1017.5 hPa NNE 1.6 km/h 1.6 km/h 37 % 0 mm
18:47 15.9 °C 1.6 °C 1017.5 hPa Calm   3.2 km/h 38 % 0 mm
18:52 15.7 °C 1.8 °C 1017.5 hPa Calm   3.2 km/h 39 % 0 mm
18:57 15.5 °C 1.6 °C 1017.5 hPa Calm   3.2 km/h 39 % 0 mm
19:02 15.3 °C 1.4 °C 1017.5 hPa Calm   1.6 km/h 39 % 0 mm
19:07 15.3 °C 1.4 °C 1017.5 hPa Calm   1.6 km/h 39 % 0 mm
19:12 15.2 °C 1.7 °C 1017.5 hPa Calm   1.6 km/h 40 % 0 mm
19:17 15.1 °C 1.6 °C 1017.5 hPa Calm   3.2 km/h 40 % 0 mm
19:22 15.1 °C 1.9 °C 1017.8 hPa Calm   3.2 km/h 41 % 0 mm
19:27 15.1 °C 1.9 °C 1017.8 hPa Calm   3.2 km/h 41 % 0 mm
19:32 14.9 °C 1.8 °C 1017.8 hPa Calm   1.6 km/h 41 % 0 mm
19:37 14.8 °C 1.7 °C 1017.8 hPa Calm   1.6 km/h 41 % 0 mm
19:42 14.7 °C 1.9 °C 1017.8 hPa Calm   1.6 km/h 42 % 0 mm
19:47 14.6 °C 2.2 °C 1017.8 hPa Calm   1.6 km/h 43 % 0 mm
19:52 14.4 °C 2 °C 1017.8 hPa Calm   1.6 km/h 43 % 0 mm
19:57 14.4 °C 2.3 °C 1017.8 hPa Calm   1.6 km/h 44 % 0 mm
20:02 14.3 °C 2.2 °C 1018.2 hPa Calm   1.6 km/h 44 % 0 mm
20:07 14.1 °C 2.3 °C 1018.2 hPa Calm   1.6 km/h 45 % 0 mm
20:12 13.9 °C 2.2 °C 1018.2 hPa Calm   1.6 km/h 45 % 0 mm
20:17 13.9 °C 1.8 °C 1018.2 hPa Calm   1.6 km/h 44 % 0 mm
20:22 13.9 °C 1.8 °C 1018.5 hPa North 1.6 km/h 4.8 km/h 44 % 0 mm
20:27 13.9 °C 2.2 °C 1018.5 hPa Calm   4.8 km/h 45 % 0 mm
20:32 13.8 °C 2.1 °C 1018.5 hPa North 1.6 km/h 4.8 km/h 45 % 0 mm
20:37 13.7 °C 2 °C 1018.5 hPa ENE 1.6 km/h 3.2 km/h 45 % 0 mm
20:42 13.7 °C 2 °C 1018.5 hPa Calm   3.2 km/h 45 % 0 mm
20:47 13.6 °C 2.2 °C 1018.5 hPa Calm   3.2 km/h 46 % 0 mm
20:52 13.5 °C 2.1 °C 1018.8 hPa NE 1.6 km/h 3.2 km/h 46 % 0 mm
20:57 13.4 °C 2.3 °C 1018.8 hPa Calm   3.2 km/h 47 % 0 mm
21:02 13.3 °C 2.2 °C 1018.8 hPa Calm   1.6 km/h 47 % 0 mm
21:07 13.2 °C 2.4 °C 1018.8 hPa Calm   1.6 km/h 48 % 0 mm
21:12 13 °C 2.2 °C 1018.8 hPa Calm   1.6 km/h 48 % 0 mm
21:17 12.8 °C 2.3 °C 1018.8 hPa Calm   1.6 km/h 49 % 0 mm
21:22 12.7 °C 2.3 °C 1018.8 hPa Calm   1.6 km/h 49 % 0 mm
21:27 12.7 °C 2.5 °C 1018.8 hPa Calm   1.6 km/h 50 % 0 mm
21:32 12.6 °C 2.4 °C 1018.5 hPa Calm   1.6 km/h 50 % 0 mm
21:37 12.6 °C 2.4 °C 1018.5 hPa Calm   1.6 km/h 50 % 0 mm
21:42 12.6 °C 2.4 °C 1018.8 hPa NE 1.6 km/h 3.2 km/h 50 % 0 mm
21:47 12.6 °C 2.2 °C 1018.8 hPa ENE 1.6 km/h 6.4 km/h 49 % 0 mm
21:52 12.7 °C 2.3 °C 1018.8 hPa Calm   6.4 km/h 49 % 0 mm
21:57 12.6 °C 2.2 °C 1018.8 hPa Calm   6.4 km/h 49 % 0 mm
22:02 12.4 °C 2 °C 1018.8 hPa Calm   3.2 km/h 49 % 0 mm
22:07 12.4 °C 2 °C 1018.8 hPa Calm   3.2 km/h 49 % 0 mm
22:12 12.3 °C 2.2 °C 1018.8 hPa NE 1.6 km/h 1.6 km/h 50 % 0 mm
22:17 12.3 °C 2.2 °C 1018.5 hPa Calm   3.2 km/h 50 % 0 mm
22:22 12.2 °C 1.8 °C 1018.5 hPa ENE 3.2 km/h 3.2 km/h 49 % 0 mm
22:27 12.2 °C 2.1 °C 1018.5 hPa Calm   3.2 km/h 50 % 0 mm
22:32 12.1 °C 2 °C 1018.5 hPa ENE 1.6 km/h 3.2 km/h 50 % 0 mm
22:37 12.1 °C 2 °C 1018.5 hPa Calm   3.2 km/h 50 % 0 mm
22:42 12 °C 1.9 °C 1018.5 hPa NNE 1.6 km/h 3.2 km/h 50 % 0 mm
22:47 12.1 °C 2.3 °C 1018.5 hPa Calm   3.2 km/h 51 % 0 mm
22:52 12.1 °C 2.3 °C 1018.5 hPa ENE 1.6 km/h 4.8 km/h 51 % 0 mm
22:57 12 °C 2.2 °C 1018.2 hPa Calm   4.8 km/h 51 % 0 mm
23:02 11.9 °C 2.1 °C 1018.2 hPa Calm   4.8 km/h 51 % 0 mm
23:07 11.9 °C 2.4 °C 1018.2 hPa ESE 1.6 km/h 4.8 km/h 52 % 0 mm
23:13 11.9 °C 2.1 °C 1018.2 hPa Calm   4.8 km/h 51 % 0 mm
23:18 11.9 °C 2.4 °C 1018.2 hPa ESE 1.6 km/h 4.8 km/h 52 % 0 mm
23:23 11.8 °C 2.3 °C 1018.2 hPa Calm   4.8 km/h 52 % 0 mm
23:28 11.7 °C 2.2 °C 1018.2 hPa Calm   4.8 km/h 52 % 0 mm
23:33 11.5 °C 2.2 °C 1018.2 hPa Calm   3.2 km/h 53 % 0 mm
23:38 11.3 °C 2.1 °C 1018.2 hPa ESE 1.6 km/h 3.2 km/h 53 % 0 mm
23:43 11.2 °C 2 °C 1018.2 hPa Calm   3.2 km/h 53 % 0 mm
23:48 11.1 °C 2.1 °C 1017.8 hPa Calm   1.6 km/h 54 % 0 mm
23:53 10.8 °C 1.9 °C 1017.8 hPa Calm   1.6 km/h 54 % 0 mm
23:58 10.6 °C 2.2 °C 1017.8 hPa Calm   1.6 km/h 56 % 0 mm
Spring, Texas: Villages of Bridgestone
Compliments of Weather Underground - 2.75 mb

Script developed by  Jim McMurry - jmcmurry@mwt.net Adapted for the template by  Wim van der Kuil - Leuven-Template.eu

You find our weather info also at:

UK Metoffice

WeatherCloud

Weather Underground

Mid-South Weather Network

AWEKAS

Citizen Weather Observer Program (CWOP)

HAMweather, WeatherForYou, PWS Weather

Equipment we use:

Weather-station
Davis Vantage Vue

Weather-program
Meteohub

Weather-server
Debian 7.9 x86 (Guest)

Provider
DreamHost

Davis Vantage Vue

Meteohub

Debian 7.9 x86 (Guest)

DreamHost